sensor_id;sensor_type;location;lat;lon;timestamp;temperature;humidity
1578;DHT22;57623;53.608;10.004;2023-05-10T00:01:31;14.70;99.90
1578;DHT22;57623;53.608;10.004;2023-05-10T00:04:00;14.70;99.90
1578;DHT22;57623;53.608;10.004;2023-05-10T00:06:28;14.70;99.90
1578;DHT22;57623;53.608;10.004;2023-05-10T00:08:56;14.60;99.90
1578;DHT22;57623;53.608;10.004;2023-05-10T00:11:24;14.60;99.90
1578;DHT22;57623;53.608;10.004;2023-05-10T00:13:52;14.50;99.90
1578;DHT22;57623;53.608;10.004;2023-05-10T00:16:21;14.50;99.90
1578;DHT22;57623;53.608;10.004;2023-05-10T00:18:49;14.50;99.90
1578;DHT22;57623;53.608;10.004;2023-05-10T00:21:18;14.50;99.90
1578;DHT22;57623;53.608;10.004;2023-05-10T00:23:46;14.50;99.90
1578;DHT22;57623;53.608;10.004;2023-05-10T00:26:14;14.50;99.90
1578;DHT22;57623;53.608;10.004;2023-05-10T00:28:43;14.40;99.90
1578;DHT22;57623;53.608;10.004;2023-05-10T00:31:11;14.40;99.90
1578;DHT22;57623;53.608;10.004;2023-05-10T00:33:39;14.40;99.90
1578;DHT22;57623;53.608;10.004;2023-05-10T00:36:07;14.40;99.90
1578;DHT22;57623;53.608;10.004;2023-05-10T00:38:36;14.30;99.90
1578;DHT22;57623;53.608;10.004;2023-05-10T00:41:04;14.30;99.90
1578;DHT22;57623;53.608;10.004;2023-05-10T00:43:33;14.30;99.90
1578;DHT22;57623;53.608;10.004;2023-05-10T00:46:01;14.20;99.90
1578;DHT22;57623;53.608;10.004;2023-05-10T00:48:29;14.20;99.90
1578;DHT22;57623;53.608;10.004;2023-05-10T00:50:57;14.20;99.90
1578;DHT22;57623;53.608;10.004;2023-05-10T00:53:25;14.20;99.90
1578;DHT22;57623;53.608;10.004;2023-05-10T00:55:55;14.20;99.90
1578;DHT22;57623;53.608;10.004;2023-05-10T00:58:23;14.10;99.90
1578;DHT22;57623;53.608;10.004;2023-05-10T01:00:55;14.10;99.90
1578;DHT22;57623;53.608;10.004;2023-05-10T01:03:24;14.10;99.90
1578;DHT22;57623;53.608;10.004;2023-05-10T01:05:52;14.00;99.90
1578;DHT22;57623;53.608;10.004;2023-05-10T01:08:20;14.00;99.90
1578;DHT22;57623;53.608;10.004;2023-05-10T01:10:48;14.00;99.90
1578;DHT22;57623;53.608;10.004;2023-05-10T01:13:29;14.00;99.90
1578;DHT22;57623;53.608;10.004;2023-05-10T01:15:58;14.00;99.90
1578;DHT22;57623;53.608;10.004;2023-05-10T01:18:29;13.90;99.90
1578;DHT22;57623;53.608;10.004;2023-05-10T01:21:04;13.90;99.90
1578;DHT22;57623;53.608;10.004;2023-05-10T01:23:55;13.90;99.90
1578;DHT22;57623;53.608;10.004;2023-05-10T01:26:44;13.90;99.90
1578;DHT22;57623;53.608;10.004;2023-05-10T01:29:46;13.90;99.90
1578;DHT22;57623;53.608;10.004;2023-05-10T01:32:41;13.80;99.90
1578;DHT22;57623;53.608;10.004;2023-05-10T01:35:18;13.80;99.90
1578;DHT22;57623;53.608;10.004;2023-05-10T01:37:52;13.70;99.90
1578;DHT22;57623;53.608;10.004;2023-05-10T01:40:29;13.70;99.90
1578;DHT22;57623;53.608;10.004;2023-05-10T01:43:02;13.70;99.90
1578;DHT22;57623;53.608;10.004;2023-05-10T01:45:33;13.70;99.90
1578;DHT22;57623;53.608;10.004;2023-05-10T01:48:09;13.60;99.90
1578;DHT22;57623;53.608;10.004;2023-05-10T01:50:41;13.60;99.90
1578;DHT22;57623;53.608;10.004;2023-05-10T01:53:12;13.60;99.90
1578;DHT22;57623;53.608;10.004;2023-05-10T01:55:44;13.50;99.90
1578;DHT22;57623;53.608;10.004;2023-05-10T01:58:17;13.50;99.90
1578;DHT22;57623;53.608;10.004;2023-05-10T02:00:47;13.50;99.90
1578;DHT22;57623;53.608;10.004;2023-05-10T02:03:18;13.50;99.90
1578;DHT22;57623;53.608;10.004;2023-05-10T02:05:51;13.50;99.90
1578;DHT22;57623;53.608;10.004;2023-05-10T02:08:21;13.40;99.90
1578;DHT22;57623;53.608;10.004;2023-05-10T02:10:50;13.40;99.90
1578;DHT22;57623;53.608;10.004;2023-05-10T02:13:20;13.40;99.90
1578;DHT22;57623;53.608;10.004;2023-05-10T02:15:50;13.40;99.90
1578;DHT22;57623;53.608;10.004;2023-05-10T02:18:21;13.40;99.90
1578;DHT22;57623;53.608;10.004;2023-05-10T02:20:50;13.30;99.90
1578;DHT22;57623;53.608;10.004;2023-05-10T02:23:20;13.30;99.90
1578;DHT22;57623;53.608;10.004;2023-05-10T02:25:49;13.30;99.90
1578;DHT22;57623;53.608;10.004;2023-05-10T02:28:19;13.30;99.90
1578;DHT22;57623;53.608;10.004;2023-05-10T02:30:49;13.20;99.90
1578;DHT22;57623;53.608;10.004;2023-05-10T02:33:20;13.20;99.90
1578;DHT22;57623;53.608;10.004;2023-05-10T02:35:50;13.20;99.90
1578;DHT22;57623;53.608;10.004;2023-05-10T02:38:20;13.20;99.90
1578;DHT22;57623;53.608;10.004;2023-05-10T02:40:50;13.20;99.90
1578;DHT22;57623;53.608;10.004;2023-05-10T02:43:19;13.10;99.90
1578;DHT22;57623;53.608;10.004;2023-05-10T02:45:50;13.10;99.90
1578;DHT22;57623;53.608;10.004;2023-05-10T02:48:22;13.10;99.90
1578;DHT22;57623;53.608;10.004;2023-05-10T02:50:52;13.00;99.90
1578;DHT22;57623;53.608;10.004;2023-05-10T02:53:27;13.00;99.90
1578;DHT22;57623;53.608;10.004;2023-05-10T02:55:59;12.90;99.90
1578;DHT22;57623;53.608;10.004;2023-05-10T02:58:28;12.90;99.90
1578;DHT22;57623;53.608;10.004;2023-05-10T03:00:59;12.80;99.90
1578;DHT22;57623;53.608;10.004;2023-05-10T03:03:29;12.80;99.90
1578;DHT22;57623;53.608;10.004;2023-05-10T03:05:57;12.80;99.90
1578;DHT22;57623;53.608;10.004;2023-05-10T03:08:26;12.80;99.90
1578;DHT22;57623;53.608;10.004;2023-05-10T03:11:08;12.80;99.90
1578;DHT22;57623;53.608;10.004;2023-05-10T03:13:44;12.80;99.90
1578;DHT22;57623;53.608;10.004;2023-05-10T03:16:21;12.80;99.90
1578;DHT22;57623;53.608;10.004;2023-05-10T03:19:00;12.80;99.90
1578;DHT22;57623;53.608;10.004;2023-05-10T03:21:30;12.70;99.90
1578;DHT22;57623;53.608;10.004;2023-05-10T03:23:59;12.70;99.90
1578;DHT22;57623;53.608;10.004;2023-05-10T03:26:32;12.70;99.90
1578;DHT22;57623;53.608;10.004;2023-05-10T03:29:00;12.70;99.90
1578;DHT22;57623;53.608;10.004;2023-05-10T03:31:28;12.70;99.90
1578;DHT22;57623;53.608;10.004;2023-05-10T03:33:58;12.70;99.90
1578;DHT22;57623;53.608;10.004;2023-05-10T03:36:26;12.60;99.90
1578;DHT22;57623;53.608;10.004;2023-05-10T03:38:54;12.70;99.90
1578;DHT22;57623;53.608;10.004;2023-05-10T03:41:22;12.70;99.90
1578;DHT22;57623;53.608;10.004;2023-05-10T03:43:50;12.70;99.90
1578;DHT22;57623;53.608;10.004;2023-05-10T03:46:18;12.70;99.90
1578;DHT22;57623;53.608;10.004;2023-05-10T03:48:46;12.70;99.90
1578;DHT22;57623;53.608;10.004;2023-05-10T03:51:15;12.70;99.90
1578;DHT22;57623;53.608;10.004;2023-05-10T03:53:43;12.60;99.90
1578;DHT22;57623;53.608;10.004;2023-05-10T03:56:11;12.60;99.90
1578;DHT22;57623;53.608;10.004;2023-05-10T03:58:39;12.60;99.90
1578;DHT22;57623;53.608;10.004;2023-05-10T04:01:07;12.60;99.90
1578;DHT22;57623;53.608;10.004;2023-05-10T04:03:35;12.60;99.90
1578;DHT22;57623;53.608;10.004;2023-05-10T04:06:05;12.60;99.90
1578;DHT22;57623;53.608;10.004;2023-05-10T04:08:36;12.60;99.90
1578;DHT22;57623;53.608;10.004;2023-05-10T04:11:07;12.60;99.90
1578;DHT22;57623;53.608;10.004;2023-05-10T04:13:36;12.60;99.90
1578;DHT22;57623;53.608;10.004;2023-05-10T04:16:05;12.70;99.90
1578;DHT22;57623;53.608;10.004;2023-05-10T04:18:33;12.60;99.90
1578;DHT22;57623;53.608;10.004;2023-05-10T04:21:01;12.70;99.90
1578;DHT22;57623;53.608;10.004;2023-05-10T04:23:32;12.70;99.90
1578;DHT22;57623;53.608;10.004;2023-05-10T04:26:01;12.70;99.90
1578;DHT22;57623;53.608;10.004;2023-05-10T04:28:30;12.70;99.90
1578;DHT22;57623;53.608;10.004;2023-05-10T04:31:02;12.60;99.90
1578;DHT22;57623;53.608;10.004;2023-05-10T04:33:30;12.70;99.90
1578;DHT22;57623;53.608;10.004;2023-05-10T04:35:58;12.70;99.90
1578;DHT22;57623;53.608;10.004;2023-05-10T04:38:27;12.60;99.90
1578;DHT22;57623;53.608;10.004;2023-05-10T04:41:05;12.60;99.90
1578;DHT22;57623;53.608;10.004;2023-05-10T04:43:33;12.70;99.90
1578;DHT22;57623;53.608;10.004;2023-05-10T04:46:02;12.70;99.90
1578;DHT22;57623;53.608;10.004;2023-05-10T04:48:30;12.70;99.90
1578;DHT22;57623;53.608;10.004;2023-05-10T04:50:58;12.70;99.90
1578;DHT22;57623;53.608;10.004;2023-05-10T04:53:26;12.70;99.90
1578;DHT22;57623;53.608;10.004;2023-05-10T04:55:54;12.70;99.90
1578;DHT22;57623;53.608;10.004;2023-05-10T04:58:24;12.70;99.90
1578;DHT22;57623;53.608;10.004;2023-05-10T05:00:51;12.70;99.90
1578;DHT22;57623;53.608;10.004;2023-05-10T05:03:19;12.80;99.90
1578;DHT22;57623;53.608;10.004;2023-05-10T05:05:48;12.80;99.90
1578;DHT22;57623;53.608;10.004;2023-05-10T05:08:17;12.80;99.90
1578;DHT22;57623;53.608;10.004;2023-05-10T05:10:45;12.80;99.90
1578;DHT22;57623;53.608;10.004;2023-05-10T05:13:13;12.90;99.90
1578;DHT22;57623;53.608;10.004;2023-05-10T05:15:43;12.90;99.90
1578;DHT22;57623;53.608;10.004;2023-05-10T05:18:11;13.00;99.90
1578;DHT22;57623;53.608;10.004;2023-05-10T05:20:39;13.10;99.90
1578;DHT22;57623;53.608;10.004;2023-05-10T05:23:09;13.20;99.90
1578;DHT22;57623;53.608;10.004;2023-05-10T05:25:37;13.20;99.90
1578;DHT22;57623;53.608;10.004;2023-05-10T05:28:08;13.20;99.90
1578;DHT22;57623;53.608;10.004;2023-05-10T05:30:36;13.20;99.90
1578;DHT22;57623;53.608;10.004;2023-05-10T05:33:05;13.30;99.90
1578;DHT22;57623;53.608;10.004;2023-05-10T05:35:33;13.30;99.90
1578;DHT22;57623;53.608;10.004;2023-05-10T05:38:01;13.40;99.90
1578;DHT22;57623;53.608;10.004;2023-05-10T05:40:29;13.40;99.90
1578;DHT22;57623;53.608;10.004;2023-05-10T05:42:57;13.40;99.90
1578;DHT22;57623;53.608;10.004;2023-05-10T05:45:25;13.40;99.90
1578;DHT22;57623;53.608;10.004;2023-05-10T05:47:53;13.50;99.90
1578;DHT22;57623;53.608;10.004;2023-05-10T05:50:23;13.60;99.90
1578;DHT22;57623;53.608;10.004;2023-05-10T05:52:51;13.60;99.90
1578;DHT22;57623;53.608;10.004;2023-05-10T05:55:19;13.70;99.90
1578;DHT22;57623;53.608;10.004;2023-05-10T05:57:47;13.80;99.90
1578;DHT22;57623;53.608;10.004;2023-05-10T06:00:15;13.90;99.90
1578;DHT22;57623;53.608;10.004;2023-05-10T06:02:43;14.00;99.90
1578;DHT22;57623;53.608;10.004;2023-05-10T06:05:12;14.00;99.90
1578;DHT22;57623;53.608;10.004;2023-05-10T06:07:42;14.10;99.90
1578;DHT22;57623;53.608;10.004;2023-05-10T06:10:10;14.10;99.90
1578;DHT22;57623;53.608;10.004;2023-05-10T06:12:38;14.20;99.90
1578;DHT22;57623;53.608;10.004;2023-05-10T06:15:07;14.30;99.90
1578;DHT22;57623;53.608;10.004;2023-05-10T06:17:35;14.30;99.90
1578;DHT22;57623;53.608;10.004;2023-05-10T06:20:04;14.30;99.90
1578;DHT22;57623;53.608;10.004;2023-05-10T06:22:32;14.40;99.90
1578;DHT22;57623;53.608;10.004;2023-05-10T06:25:01;14.50;99.90
1578;DHT22;57623;53.608;10.004;2023-05-10T06:27:30;14.50;99.90
1578;DHT22;57623;53.608;10.004;2023-05-10T06:29:58;14.60;99.90
1578;DHT22;57623;53.608;10.004;2023-05-10T06:32:38;14.70;99.90
1578;DHT22;57623;53.608;10.004;2023-05-10T06:35:07;14.60;99.90
1578;DHT22;57623;53.608;10.004;2023-05-10T06:37:35;14.60;99.90
1578;DHT22;57623;53.608;10.004;2023-05-10T06:40:06;14.70;99.90
1578;DHT22;57623;53.608;10.004;2023-05-10T06:42:34;14.80;99.90
1578;DHT22;57623;53.608;10.004;2023-05-10T06:45:02;14.80;99.90
1578;DHT22;57623;53.608;10.004;2023-05-10T06:47:30;14.80;99.90
1578;DHT22;57623;53.608;10.004;2023-05-10T06:49:59;14.80;99.90
1578;DHT22;57623;53.608;10.004;2023-05-10T06:52:27;14.90;99.90
1578;DHT22;57623;53.608;10.004;2023-05-10T06:54:55;14.90;99.90
1578;DHT22;57623;53.608;10.004;2023-05-10T06:57:24;14.90;99.90
1578;DHT22;57623;53.608;10.004;2023-05-10T06:59:57;15.00;99.90
1578;DHT22;57623;53.608;10.004;2023-05-10T07:02:28;15.00;99.90
1578;DHT22;57623;53.608;10.004;2023-05-10T07:04:56;15.10;99.90
1578;DHT22;57623;53.608;10.004;2023-05-10T07:07:41;15.10;99.90
1578;DHT22;57623;53.608;10.004;2023-05-10T07:10:10;15.20;99.90
1578;DHT22;57623;53.608;10.004;2023-05-10T07:12:39;15.20;99.90
1578;DHT22;57623;53.608;10.004;2023-05-10T07:15:08;15.20;99.90
1578;DHT22;57623;53.608;10.004;2023-05-10T07:17:36;15.20;99.90
1578;DHT22;57623;53.608;10.004;2023-05-10T07:20:06;15.30;99.90
1578;DHT22;57623;53.608;10.004;2023-05-10T07:22:34;15.30;99.90
1578;DHT22;57623;53.608;10.004;2023-05-10T07:25:03;15.40;99.90
1578;DHT22;57623;53.608;10.004;2023-05-10T07:27:30;15.50;99.90
1578;DHT22;57623;53.608;10.004;2023-05-10T07:30:00;15.60;99.90
1578;DHT22;57623;53.608;10.004;2023-05-10T07:32:29;15.60;99.90
1578;DHT22;57623;53.608;10.004;2023-05-10T07:34:57;15.60;99.90
1578;DHT22;57623;53.608;10.004;2023-05-10T07:37:25;15.70;99.90
1578;DHT22;57623;53.608;10.004;2023-05-10T07:39:53;15.70;99.90
1578;DHT22;57623;53.608;10.004;2023-05-10T07:42:21;15.80;99.90
1578;DHT22;57623;53.608;10.004;2023-05-10T07:44:49;15.80;99.90
1578;DHT22;57623;53.608;10.004;2023-05-10T07:47:19;15.90;99.90
1578;DHT22;57623;53.608;10.004;2023-05-10T07:49:47;15.90;99.90
1578;DHT22;57623;53.608;10.004;2023-05-10T07:52:15;16.00;99.90
1578;DHT22;57623;53.608;10.004;2023-05-10T07:54:43;16.00;99.90
1578;DHT22;57623;53.608;10.004;2023-05-10T07:57:11;16.00;99.90
1578;DHT22;57623;53.608;10.004;2023-05-10T07:59:41;16.10;99.90
1578;DHT22;57623;53.608;10.004;2023-05-10T08:02:09;16.10;99.90
1578;DHT22;57623;53.608;10.004;2023-05-10T08:04:39;16.20;99.90
1578;DHT22;57623;53.608;10.004;2023-05-10T08:07:07;16.30;99.90
1578;DHT22;57623;53.608;10.004;2023-05-10T08:09:36;16.30;99.90
1578;DHT22;57623;53.608;10.004;2023-05-10T08:12:04;16.40;99.90
1578;DHT22;57623;53.608;10.004;2023-05-10T08:14:32;16.40;99.90
1578;DHT22;57623;53.608;10.004;2023-05-10T08:17:00;16.50;99.90
1578;DHT22;57623;53.608;10.004;2023-05-10T08:19:28;16.50;99.90
1578;DHT22;57623;53.608;10.004;2023-05-10T08:21:58;16.40;99.90
1578;DHT22;57623;53.608;10.004;2023-05-10T08:24:26;16.40;99.90
1578;DHT22;57623;53.608;10.004;2023-05-10T08:26:54;16.40;99.90
1578;DHT22;57623;53.608;10.004;2023-05-10T08:29:22;16.40;99.90
1578;DHT22;57623;53.608;10.004;2023-05-10T08:31:52;16.40;99.90
1578;DHT22;57623;53.608;10.004;2023-05-10T08:34:20;16.50;99.90
1578;DHT22;57623;53.608;10.004;2023-05-10T08:36:48;16.50;99.90
1578;DHT22;57623;53.608;10.004;2023-05-10T08:39:17;16.50;99.90
1578;DHT22;57623;53.608;10.004;2023-05-10T08:42:00;16.50;99.90
1578;DHT22;57623;53.608;10.004;2023-05-10T08:44:29;16.50;99.90
1578;DHT22;57623;53.608;10.004;2023-05-10T08:46:59;16.60;99.90
1578;DHT22;57623;53.608;10.004;2023-05-10T08:49:31;16.70;99.90
1578;DHT22;57623;53.608;10.004;2023-05-10T08:52:01;16.60;99.90
1578;DHT22;57623;53.608;10.004;2023-05-10T08:54:32;16.60;99.90
1578;DHT22;57623;53.608;10.004;2023-05-10T08:57:00;16.50;99.90
1578;DHT22;57623;53.608;10.004;2023-05-10T08:59:29;16.50;99.90
1578;DHT22;57623;53.608;10.004;2023-05-10T09:01:58;16.50;99.90
1578;DHT22;57623;53.608;10.004;2023-05-10T09:04:26;16.70;99.90
1578;DHT22;57623;53.608;10.004;2023-05-10T09:06:55;16.80;99.90
1578;DHT22;57623;53.608;10.004;2023-05-10T09:09:24;16.80;99.90
1578;DHT22;57623;53.608;10.004;2023-05-10T09:11:54;16.90;99.90
1578;DHT22;57623;53.608;10.004;2023-05-10T09:14:23;17.00;99.90
1578;DHT22;57623;53.608;10.004;2023-05-10T09:16:52;17.00;99.90
1578;DHT22;57623;53.608;10.004;2023-05-10T09:19:21;16.90;99.90
1578;DHT22;57623;53.608;10.004;2023-05-10T09:21:49;16.90;99.90
1578;DHT22;57623;53.608;10.004;2023-05-10T09:24:17;17.00;99.90
1578;DHT22;57623;53.608;10.004;2023-05-10T09:26:46;17.00;99.90
1578;DHT22;57623;53.608;10.004;2023-05-10T09:29:16;17.10;99.90
1578;DHT22;57623;53.608;10.004;2023-05-10T09:31:46;17.10;99.90
1578;DHT22;57623;53.608;10.004;2023-05-10T09:34:19;17.20;99.90
1578;DHT22;57623;53.608;10.004;2023-05-10T09:36:55;17.20;99.90
1578;DHT22;57623;53.608;10.004;2023-05-10T09:39:31;17.20;99.90
1578;DHT22;57623;53.608;10.004;2023-05-10T09:42:00;17.10;99.90
1578;DHT22;57623;53.608;10.004;2023-05-10T09:44:32;16.90;99.90
1578;DHT22;57623;53.608;10.004;2023-05-10T09:47:00;16.80;99.90
1578;DHT22;57623;53.608;10.004;2023-05-10T09:49:29;16.70;99.90
1578;DHT22;57623;53.608;10.004;2023-05-10T09:52:01;16.70;99.90
1578;DHT22;57623;53.608;10.004;2023-05-10T09:54:30;16.60;99.90
1578;DHT22;57623;53.608;10.004;2023-05-10T09:56:58;16.50;99.90
1578;DHT22;57623;53.608;10.004;2023-05-10T09:59:27;16.40;99.90
1578;DHT22;57623;53.608;10.004;2023-05-10T10:01:58;16.40;99.90
1578;DHT22;57623;53.608;10.004;2023-05-10T10:04:28;16.40;99.90
1578;DHT22;57623;53.608;10.004;2023-05-10T10:07:00;16.30;99.90
1578;DHT22;57623;53.608;10.004;2023-05-10T10:09:29;16.20;99.90
1578;DHT22;57623;53.608;10.004;2023-05-10T10:11:58;16.10;99.90
1578;DHT22;57623;53.608;10.004;2023-05-10T10:14:27;15.90;99.90
1578;DHT22;57623;53.608;10.004;2023-05-10T10:16:56;15.80;99.90
1578;DHT22;57623;53.608;10.004;2023-05-10T10:19:34;15.70;99.90
1578;DHT22;57623;53.608;10.004;2023-05-10T10:22:04;15.60;99.90
1578;DHT22;57623;53.608;10.004;2023-05-10T10:24:32;15.40;99.90
1578;DHT22;57623;53.608;10.004;2023-05-10T10:27:06;15.30;99.90
1578;DHT22;57623;53.608;10.004;2023-05-10T10:29:41;15.30;99.90
1578;DHT22;57623;53.608;10.004;2023-05-10T10:32:21;15.10;99.90
1578;DHT22;57623;53.608;10.004;2023-05-10T10:34:51;15.00;99.90
1578;DHT22;57623;53.608;10.004;2023-05-10T10:37:19;14.80;99.90
1578;DHT22;57623;53.608;10.004;2023-05-10T10:39:48;14.70;99.90
1578;DHT22;57623;53.608;10.004;2023-05-10T10:42:43;14.60;99.90
1578;DHT22;57623;53.608;10.004;2023-05-10T10:45:12;14.50;99.90
1578;DHT22;57623;53.608;10.004;2023-05-10T10:47:42;14.50;99.90
1578;DHT22;57623;53.608;10.004;2023-05-10T10:50:11;14.50;99.90
1578;DHT22;57623;53.608;10.004;2023-05-10T10:52:40;14.60;99.90
1578;DHT22;57623;53.608;10.004;2023-05-10T10:55:10;14.70;99.90
1578;DHT22;57623;53.608;10.004;2023-05-10T10:57:45;14.80;99.90
1578;DHT22;57623;53.608;10.004;2023-05-10T11:00:27;14.70;99.90
1578;DHT22;57623;53.608;10.004;2023-05-10T11:03:01;14.70;99.90
1578;DHT22;57623;53.608;10.004;2023-05-10T11:05:37;14.80;99.90
1578;DHT22;57623;53.608;10.004;2023-05-10T11:08:11;14.70;99.90
1578;DHT22;57623;53.608;10.004;2023-05-10T11:10:48;14.70;99.90
1578;DHT22;57623;53.608;10.004;2023-05-10T11:13:16;14.70;99.90
1578;DHT22;57623;53.608;10.004;2023-05-10T11:15:54;14.70;99.90
1578;DHT22;57623;53.608;10.004;2023-05-10T11:18:26;14.70;99.90
1578;DHT22;57623;53.608;10.004;2023-05-10T11:20:57;14.80;99.90
1578;DHT22;57623;53.608;10.004;2023-05-10T11:23:30;14.80;99.90
1578;DHT22;57623;53.608;10.004;2023-05-10T11:25:59;14.80;99.90
1578;DHT22;57623;53.608;10.004;2023-05-10T11:28:27;14.80;99.90
1578;DHT22;57623;53.608;10.004;2023-05-10T11:30:55;14.80;99.90
1578;DHT22;57623;53.608;10.004;2023-05-10T11:33:25;14.80;99.90
1578;DHT22;57623;53.608;10.004;2023-05-10T11:35:53;14.90;99.90
1578;DHT22;57623;53.608;10.004;2023-05-10T11:38:21;14.80;99.90
1578;DHT22;57623;53.608;10.004;2023-05-10T11:40:51;14.80;99.90
1578;DHT22;57623;53.608;10.004;2023-05-10T11:43:23;14.80;99.90
1578;DHT22;57623;53.608;10.004;2023-05-10T11:45:54;14.80;99.90
1578;DHT22;57623;53.608;10.004;2023-05-10T11:48:22;14.70;99.90
1578;DHT22;57623;53.608;10.004;2023-05-10T11:50:52;14.70;99.90
1578;DHT22;57623;53.608;10.004;2023-05-10T11:53:25;14.80;99.90
1578;DHT22;57623;53.608;10.004;2023-05-10T11:55:53;14.80;99.90
1578;DHT22;57623;53.608;10.004;2023-05-10T11:58:21;14.80;99.90
1578;DHT22;57623;53.608;10.004;2023-05-10T12:00:50;14.80;99.90
1578;DHT22;57623;53.608;10.004;2023-05-10T12:03:18;14.80;99.90
1578;DHT22;57623;53.608;10.004;2023-05-10T12:05:46;14.80;99.90
1578;DHT22;57623;53.608;10.004;2023-05-10T12:08:20;14.80;99.90
1578;DHT22;57623;53.608;10.004;2023-05-10T12:10:48;14.90;99.90
1578;DHT22;57623;53.608;10.004;2023-05-10T12:13:17;14.90;99.90
1578;DHT22;57623;53.608;10.004;2023-05-10T12:15:47;14.90;99.90
1578;DHT22;57623;53.608;10.004;2023-05-10T12:18:22;14.90;99.90
1578;DHT22;57623;53.608;10.004;2023-05-10T12:20:51;15.00;99.90
1578;DHT22;57623;53.608;10.004;2023-05-10T12:23:21;14.90;99.90
1578;DHT22;57623;53.608;10.004;2023-05-10T12:25:49;14.80;99.90
1578;DHT22;57623;53.608;10.004;2023-05-10T12:28:19;14.90;99.90
1578;DHT22;57623;53.608;10.004;2023-05-10T12:30:47;14.90;99.90
1578;DHT22;57623;53.608;10.004;2023-05-10T12:33:17;14.90;99.90
1578;DHT22;57623;53.608;10.004;2023-05-10T12:35:46;15.00;99.90
1578;DHT22;57623;53.608;10.004;2023-05-10T12:38:31;15.10;99.90
1578;DHT22;57623;53.608;10.004;2023-05-10T12:41:00;15.20;99.90
1578;DHT22;57623;53.608;10.004;2023-05-10T12:43:29;15.20;99.90
1578;DHT22;57623;53.608;10.004;2023-05-10T12:45:57;15.30;99.90
1578;DHT22;57623;53.608;10.004;2023-05-10T12:48:25;15.40;99.90
1578;DHT22;57623;53.608;10.004;2023-05-10T12:50:55;15.40;99.90
1578;DHT22;57623;53.608;10.004;2023-05-10T12:53:23;15.40;99.90
1578;DHT22;57623;53.608;10.004;2023-05-10T12:55:52;15.50;99.90
1578;DHT22;57623;53.608;10.004;2023-05-10T12:58:21;15.50;99.90
1578;DHT22;57623;53.608;10.004;2023-05-10T13:01:02;15.60;99.90
1578;DHT22;57623;53.608;10.004;2023-05-10T13:03:31;15.70;99.90
1578;DHT22;57623;53.608;10.004;2023-05-10T13:05:59;15.80;99.90
1578;DHT22;57623;53.608;10.004;2023-05-10T13:08:27;15.90;99.90
1578;DHT22;57623;53.608;10.004;2023-05-10T13:11:01;16.00;99.90
1578;DHT22;57623;53.608;10.004;2023-05-10T13:13:29;16.10;99.90
1578;DHT22;57623;53.608;10.004;2023-05-10T13:15:57;16.20;99.90
1578;DHT22;57623;53.608;10.004;2023-05-10T13:18:25;16.20;99.90
1578;DHT22;57623;53.608;10.004;2023-05-10T13:20:54;16.30;99.90
1578;DHT22;57623;53.608;10.004;2023-05-10T13:23:22;16.40;99.90
1578;DHT22;57623;53.608;10.004;2023-05-10T13:25:50;16.50;99.90
1578;DHT22;57623;53.608;10.004;2023-05-10T13:28:19;16.60;99.90
1578;DHT22;57623;53.608;10.004;2023-05-10T13:30:47;16.60;99.90
1578;DHT22;57623;53.608;10.004;2023-05-10T13:33:15;16.60;99.90
1578;DHT22;57623;53.608;10.004;2023-05-10T13:35:43;16.70;99.90
1578;DHT22;57623;53.608;10.004;2023-05-10T13:38:12;16.80;99.90
1578;DHT22;57623;53.608;10.004;2023-05-10T13:40:40;16.80;99.90
1578;DHT22;57623;53.608;10.004;2023-05-10T13:43:08;16.90;99.90
1578;DHT22;57623;53.608;10.004;2023-05-10T13:45:38;16.90;99.90
1578;DHT22;57623;53.608;10.004;2023-05-10T13:48:06;16.90;99.90
1578;DHT22;57623;53.608;10.004;2023-05-10T13:50:34;16.90;99.90
1578;DHT22;57623;53.608;10.004;2023-05-10T13:53:02;16.80;99.90
1578;DHT22;57623;53.608;10.004;2023-05-10T13:55:30;16.80;99.90
1578;DHT22;57623;53.608;10.004;2023-05-10T13:57:58;16.80;99.90
1578;DHT22;57623;53.608;10.004;2023-05-10T14:00:26;16.70;99.90
1578;DHT22;57623;53.608;10.004;2023-05-10T14:02:55;16.70;99.90
1578;DHT22;57623;53.608;10.004;2023-05-10T14:05:23;16.70;99.90
1578;DHT22;57623;53.608;10.004;2023-05-10T14:07:52;16.70;99.90
1578;DHT22;57623;53.608;10.004;2023-05-10T14:10:20;16.70;99.90
1578;DHT22;57623;53.608;10.004;2023-05-10T14:12:49;16.70;99.90
1578;DHT22;57623;53.608;10.004;2023-05-10T14:15:17;16.70;99.90
1578;DHT22;57623;53.608;10.004;2023-05-10T14:17:45;16.70;99.90
1578;DHT22;57623;53.608;10.004;2023-05-10T14:20:14;16.70;99.90
1578;DHT22;57623;53.608;10.004;2023-05-10T14:22:42;16.80;99.90
1578;DHT22;57623;53.608;10.004;2023-05-10T14:25:10;16.90;99.90
1578;DHT22;57623;53.608;10.004;2023-05-10T14:27:39;17.00;99.90
1578;DHT22;57623;53.608;10.004;2023-05-10T14:30:08;17.00;99.90
1578;DHT22;57623;53.608;10.004;2023-05-10T14:32:36;17.00;99.90
1578;DHT22;57623;53.608;10.004;2023-05-10T14:35:05;17.10;99.90
1578;DHT22;57623;53.608;10.004;2023-05-10T14:37:37;17.20;99.90
1578;DHT22;57623;53.608;10.004;2023-05-10T14:40:07;17.20;99.90
1578;DHT22;57623;53.608;10.004;2023-05-10T14:42:35;17.20;99.90
1578;DHT22;57623;53.608;10.004;2023-05-10T14:45:04;17.10;99.90
1578;DHT22;57623;53.608;10.004;2023-05-10T14:47:32;17.00;99.90
1578;DHT22;57623;53.608;10.004;2023-05-10T14:50:00;16.80;99.90
1578;DHT22;57623;53.608;10.004;2023-05-10T14:52:29;16.80;99.90
1578;DHT22;57623;53.608;10.004;2023-05-10T14:55:01;16.80;99.90
1578;DHT22;57623;53.608;10.004;2023-05-10T14:57:29;16.80;99.90
1578;DHT22;57623;53.608;10.004;2023-05-10T14:59:57;16.90;99.90
1578;DHT22;57623;53.608;10.004;2023-05-10T15:02:25;17.00;99.90
1578;DHT22;57623;53.608;10.004;2023-05-10T15:04:54;17.00;99.90
1578;DHT22;57623;53.608;10.004;2023-05-10T15:07:22;17.00;99.90
1578;DHT22;57623;53.608;10.004;2023-05-10T15:09:50;17.00;99.90
1578;DHT22;57623;53.608;10.004;2023-05-10T15:12:20;17.00;99.90
1578;DHT22;57623;53.608;10.004;2023-05-10T15:14:48;17.00;99.90
1578;DHT22;57623;53.608;10.004;2023-05-10T15:17:16;16.90;99.90
1578;DHT22;57623;53.608;10.004;2023-05-10T15:19:44;16.90;99.90
1578;DHT22;57623;53.608;10.004;2023-05-10T15:22:12;16.90;99.90
1578;DHT22;57623;53.608;10.004;2023-05-10T15:24:40;16.90;99.90
1578;DHT22;57623;53.608;10.004;2023-05-10T15:27:08;16.90;99.90
1578;DHT22;57623;53.608;10.004;2023-05-10T15:29:37;16.90;99.90
1578;DHT22;57623;53.608;10.004;2023-05-10T15:32:05;17.00;99.90
1578;DHT22;57623;53.608;10.004;2023-05-10T15:34:33;17.10;99.90
1578;DHT22;57623;53.608;10.004;2023-05-10T15:37:02;17.10;99.90
1578;DHT22;57623;53.608;10.004;2023-05-10T15:39:30;17.20;99.90
1578;DHT22;57623;53.608;10.004;2023-05-10T15:41:58;17.20;99.90
1578;DHT22;57623;53.608;10.004;2023-05-10T15:44:28;17.20;99.90
1578;DHT22;57623;53.608;10.004;2023-05-10T15:46:57;17.20;99.90